TimeEDT,TemperatureF,Dew PointF,Humidity,Sea Level PressureIn,VisibilityMPH,Wind Direction,Wind SpeedMPH,Gust SpeedMPH,PrecipitationIn,Events,Conditions,WindDirDegrees,DateUTC
12:55 AM,46.8,43.2,87,30.40,10.0,NE,15.0,-,N/A,,Overcast,50,2013-04-23 04:55:00
1:55 AM,46.4,42.8,87,30.38,10.0,NE,13.8,-,N/A,,Overcast,50,2013-04-23 05:55:00
2:55 AM,45.9,41.7,85,30.35,10.0,NE,13.8,-,N/A,,Overcast,40,2013-04-23 06:55:00
3:08 AM,46.4,41.0,81,30.35,10.0,NE,12.7,-,N/A,,Overcast,50,2013-04-23 07:08:00
3:55 AM,45.5,40.5,83,30.33,10.0,NE,15.0,21.9,N/A,,Overcast,40,2013-04-23 07:55:00
4:55 AM,45.0,39.9,82,30.32,10.0,NNE,12.7,-,N/A,,Overcast,30,2013-04-23 08:55:00
5:55 AM,44.6,39.2,81,30.31,10.0,NNE,13.8,-,N/A,,Overcast,30,2013-04-23 09:55:00
6:55 AM,44.2,38.8,81,30.32,10.0,NNE,15.0,-,N/A,,Overcast,30,2013-04-23 10:55:00
7:55 AM,45.1,39.4,80,30.32,10.0,NNE,11.5,-,N/A,,Overcast,30,2013-04-23 11:55:00
8:55 AM,46.2,40.5,80,30.30,10.0,NNE,15.0,-,N/A,,Overcast,20,2013-04-23 12:55:00
9:55 AM,47.8,40.8,77,30.30,10.0,NNE,13.8,-,N/A,,Overcast,30,2013-04-23 13:55:00
10:55 AM,49.3,41.2,74,30.28,10.0,North,11.5,20.7,N/A,,Overcast,10,2013-04-23 14:55:00
11:55 AM,52.0,42.3,69,30.26,10.0,NNE,13.8,-,N/A,,Overcast,30,2013-04-23 15:55:00
12:55 PM,52.7,42.3,68,30.23,10.0,North,10.4,-,N/A,,Overcast,10,2013-04-23 16:55:00
1:55 PM,54.0,43.3,67,30.21,10.0,North,13.8,-,N/A,,Overcast,10,2013-04-23 17:55:00
2:55 PM,53.8,43.2,67,30.22,10.0,North,11.5,-,N/A,,Overcast,360,2013-04-23 18:55:00
3:55 PM,54.1,43.9,68,30.22,10.0,NNW,11.5,-,N/A,,Overcast,340,2013-04-23 19:55:00
4:55 PM,53.2,45.0,73,30.20,10.0,NNE,10.4,-,N/A,,Overcast,30,2013-04-23 20:55:00
5:55 PM,51.6,45.5,80,30.18,10.0,NNE,11.5,-,N/A,,Overcast,30,2013-04-23 21:55:00
6:47 PM,50.0,44.6,82,30.15,10.0,NNE,11.5,-,N/A,,Scattered Clouds,20,2013-04-23 22:47:00
6:55 PM,50.4,44.8,81,30.15,10.0,NE,11.5,-,N/A,,Scattered Clouds,40,2013-04-23 22:55:00
7:09 PM,50.0,44.6,82,30.14,10.0,NNE,9.2,-,N/A,,Mostly Cloudy,30,2013-04-23 23:09:00
7:50 PM,48.2,44.6,87,30.15,10.0,NNE,5.8,-,N/A,,Overcast,30,2013-04-23 23:50:00
7:55 PM,48.9,44.6,85,30.16,10.0,NNE,6.9,-,N/A,,Overcast,20,2013-04-23 23:55:00
8:26 PM,48.2,44.6,87,30.17,10.0,North,5.8,-,N/A,,Overcast,10,2013-04-24 00:26:00
8:55 PM,48.9,45.0,86,30.17,10.0,North,6.9,-,N/A,,Overcast,350,2013-04-24 00:55:00
9:13 PM,48.2,44.6,87,30.16,10.0,North,6.9,-,N/A,,Overcast,10,2013-04-24 01:13:00
9:48 PM,48.2,44.6,87,30.16,10.0,NNE,4.6,-,N/A,,Overcast,20,2013-04-24 01:48:00
9:55 PM,48.4,44.4,86,30.16,10.0,North,4.6,-,N/A,,Overcast,360,2013-04-24 01:55:00
9:56 PM,48.2,44.6,87,30.16,10.0,North,3.5,-,N/A,,Overcast,360,2013-04-24 01:56:00
10:29 PM,48.2,44.6,87,30.17,10.0,NW,3.5,-,N/A,,Overcast,320,2013-04-24 02:29:00
10:46 PM,48.2,44.6,87,30.16,10.0,North,3.5,-,N/A,,Overcast,360,2013-04-24 02:46:00
10:55 PM,47.3,44.2,89,30.15,10.0,North,4.6,-,N/A,,Overcast,10,2013-04-24 02:55:00
11:55 PM,48.4,44.2,86,30.15,10.0,Calm,Calm,-,N/A,,Overcast,0,2013-04-24 03:55:00